createdAt,value
2022-09-23T00:01:26.045Z,99645.69
2022-09-23T00:03:54.083Z,99641.66
2022-09-23T00:06:23.466Z,99635.03
2022-09-23T00:08:52.061Z,99635.06
2022-09-23T00:11:22.833Z,99636.75
2022-09-23T00:13:52.704Z,99636.41
2022-09-23T00:16:24.300Z,99639.25
2022-09-23T00:18:52.002Z,99632.97
2022-09-23T00:21:21.184Z,99633.66
2022-09-23T00:23:49.554Z,99628.22
2022-09-23T00:26:19.116Z,99626.72
2022-09-23T00:28:47.974Z,99626.09
2022-09-23T00:31:18.140Z,99623.06
2022-09-23T00:33:45.963Z,99631.91
2022-09-23T00:36:15.851Z,99619.94
2022-09-23T00:38:44.396Z,99611.38
2022-09-23T00:41:18.342Z,99608.75
2022-09-23T00:43:50.493Z,99617.19
2022-09-23T00:46:29.310Z,99614.50
2022-09-23T00:49:13.046Z,99605.13
2022-09-23T00:51:45.134Z,99600.59
2022-09-23T00:54:13.223Z,99605.00
2022-09-23T00:56:41.035Z,99603.34
2022-09-23T00:59:10.024Z,99604.87
2022-09-23T01:01:38.675Z,99599.13
2022-09-23T01:04:07.844Z,99606.84
2022-09-23T01:06:35.963Z,99601.59
2022-09-23T01:09:03.992Z,99605.97
2022-09-23T01:11:37.442Z,99611.84
2022-09-23T01:14:42.046Z,99607.59
2022-09-23T01:17:15.875Z,99605.06
2022-09-23T01:20:15.319Z,99609.22
2022-09-23T01:23:12.361Z,99613.72
2022-09-23T01:26:04.933Z,99603.09
2022-09-23T01:29:07.103Z,99609.47
2022-09-23T01:31:45.086Z,99602.47
2022-09-23T01:34:51.042Z,99608.53
2022-09-23T01:37:28.747Z,99605.88
2022-09-23T01:40:02.817Z,99610.31
2022-09-23T01:42:39.703Z,99611.09
2022-09-23T01:45:12.898Z,99599.44
2022-09-23T01:47:45.264Z,99600.34
2022-09-23T01:50:38.409Z,99606.56
2022-09-23T01:53:11.942Z,99605.25
2022-09-23T01:55:47.904Z,99610.97
2022-09-23T01:58:24.613Z,99607.06
2022-09-23T02:01:00.454Z,99600.66
2022-09-23T02:03:35.517Z,99602.13
2022-09-23T02:06:12.783Z,99606.56
2022-09-23T02:09:06.335Z,99604.87
2022-09-23T02:11:36.496Z,99603.06
2022-09-23T02:14:23.576Z,99601.62
2022-09-23T02:16:52.962Z,99593.31
2022-09-23T02:19:27.292Z,99596.81
2022-09-23T02:22:23.627Z,99595.28
2022-09-23T02:24:51.837Z,99595.25
2022-09-23T02:27:34.826Z,99598.78
2022-09-23T02:30:09.598Z,99601.34
2022-09-23T02:33:04.332Z,99598.50
2022-09-23T02:35:49.119Z,99599.19
2022-09-23T02:38:40.124Z,99600.59
2022-09-23T02:41:28.295Z,99602.03
2022-09-23T02:44:11.366Z,99598.16
2022-09-23T02:46:39.579Z,99593.69
2022-09-23T02:49:23.533Z,99598.13
2022-09-23T02:51:51.713Z,99598.28
2022-09-23T02:54:22.442Z,99612.81
2022-09-23T02:56:50.312Z,99600.72
2022-09-23T02:59:19.682Z,99603.97
2022-09-23T03:02:08.043Z,99603.56
2022-09-23T03:04:47.463Z,99603.84
2022-09-23T03:07:19.604Z,99597.34
2022-09-23T03:09:57.516Z,99595.13
2022-09-23T03:12:49.493Z,99603.63
2022-09-23T03:15:35.446Z,99592.28
2022-09-23T03:18:31.765Z,99598.91
2022-09-23T03:21:04.241Z,99598.47
2022-09-23T03:23:35.890Z,99604.53
2022-09-23T03:26:12.476Z,99608.50
2022-09-23T03:28:43.842Z,99602.84
2022-09-23T03:31:13.335Z,99601.81
2022-09-23T03:33:46.184Z,99608.03
2022-09-23T03:36:35.714Z,99605.44
2022-09-23T03:39:08.326Z,99602.53
2022-09-23T03:41:45.378Z,99596.94
2022-09-23T03:44:13.009Z,99603.84
2022-09-23T03:46:44.185Z,99593.19
2022-09-23T03:49:24.498Z,99598.41
2022-09-23T03:51:52.433Z,99609.09
2022-09-23T03:54:20.503Z,99596.81
2022-09-23T03:56:48.219Z,99599.91
2022-09-23T03:59:16.864Z,99602.13
2022-09-23T04:01:46.115Z,99605.63
2022-09-23T04:04:14.184Z,99602.91
2022-09-23T04:06:41.843Z,99602.91
2022-09-23T04:09:09.779Z,99600.00
2022-09-23T04:11:37.804Z,99605.72
2022-09-23T04:14:05.809Z,99605.72
2022-09-23T04:16:33.490Z,99603.97
2022-09-23T04:19:01.500Z,99606.53
2022-09-23T04:21:31.203Z,99606.47
2022-09-23T04:23:58.974Z,99602.06
2022-09-23T04:26:27.024Z,99602.69
2022-09-23T04:28:55.355Z,99602.97
2022-09-23T04:31:23.972Z,99600.06
2022-09-23T04:33:55.223Z,99605.37
2022-09-23T04:36:23.093Z,99606.88
2022-09-23T04:38:51.202Z,99607.53
2022-09-23T04:41:20.124Z,99608.94
2022-09-23T04:43:47.775Z,99615.84
2022-09-23T04:46:16.403Z,99615.38
2022-09-23T04:48:44.983Z,99615.78
2022-09-23T04:51:15.465Z,99628.66
2022-09-23T04:53:45.034Z,99622.31
2022-09-23T04:56:18.717Z,99618.78
2022-09-23T04:58:46.734Z,99619.50
2022-09-23T05:01:20.265Z,99620.41
2022-09-23T05:03:48.284Z,99623.28
2022-09-23T05:06:16.394Z,99629.03
2022-09-23T05:08:52.067Z,99629.66
2022-09-23T05:11:20.889Z,99628.06
2022-09-23T05:13:49.752Z,99635.97
2022-09-23T05:16:18.263Z,99642.09
2022-09-23T05:18:46.894Z,99640.38
2022-09-23T05:21:17.402Z,99642.37
2022-09-23T05:23:50.343Z,99641.81
2022-09-23T05:26:18.283Z,99635.03
2022-09-23T05:28:45.924Z,99637.69
2022-09-23T05:31:20.596Z,99642.03
2022-09-23T05:33:54.348Z,99643.75
2022-09-23T05:36:23.008Z,99647.12
2022-09-23T05:38:51.734Z,99644.38
2022-09-23T05:41:23.123Z,99647.94
2022-09-23T05:43:52.513Z,99647.84
2022-09-23T05:46:23.430Z,99652.34
2022-09-23T05:48:51.824Z,99650.69
2022-09-23T05:51:21.840Z,99643.13
2022-09-23T05:53:52.796Z,99647.44
2022-09-23T05:56:23.085Z,99645.06
2022-09-23T05:58:51.843Z,99637.88
2022-09-23T06:01:22.064Z,99634.75
2022-09-23T06:03:57.347Z,99642.31
2022-09-23T06:06:36.653Z,99638.62
2022-09-23T06:09:06.646Z,99641.81
2022-09-23T06:11:36.020Z,99649.44
2022-09-23T06:14:04.245Z,99644.22
2022-09-23T06:16:34.136Z,99648.84
2022-09-23T06:19:06.602Z,99655.53
2022-09-23T06:21:37.557Z,99651.63
2022-09-23T06:24:06.422Z,99646.78
2022-09-23T06:26:35.347Z,99650.81
2022-09-23T06:29:08.811Z,99649.84
2022-09-23T06:31:36.491Z,99650.28
2022-09-23T06:34:11.817Z,99650.50
2022-09-23T06:36:44.533Z,99652.81
2022-09-23T06:39:16.768Z,99647.47
2022-09-23T06:41:45.512Z,99646.50
2022-09-23T06:44:14.487Z,99655.91
2022-09-23T06:46:42.443Z,99660.19
2022-09-23T06:49:10.795Z,99664.34
2022-09-23T06:51:40.369Z,99655.69
2022-09-23T06:54:08.469Z,99656.53
2022-09-23T06:56:39.079Z,99664.63
2022-09-23T06:59:10.926Z,99658.16
2022-09-23T07:01:39.296Z,99660.97
2022-09-23T07:04:07.960Z,99659.59
2022-09-23T07:06:36.257Z,99648.91
2022-09-23T07:09:05.467Z,99650.50
2022-09-23T07:11:33.718Z,99650.59
2022-09-23T07:14:01.825Z,99653.81
2022-09-23T07:16:29.788Z,99657.41
2022-09-23T07:18:57.947Z,99656.06
2022-09-23T07:21:26.156Z,99664.72
2022-09-23T07:23:55.437Z,99663.69
2022-09-23T07:26:24.167Z,99667.78
2022-09-23T07:28:56.046Z,99672.38
2022-09-23T07:31:35.484Z,99671.41
2022-09-23T07:34:07.939Z,99670.72
2022-09-23T07:36:37.623Z,99672.56
2022-09-23T07:39:05.437Z,99672.38
2022-09-23T07:41:34.665Z,99666.59
2022-09-23T07:44:03.316Z,99664.06
2022-09-23T07:46:33.575Z,99672.47
2022-09-23T07:49:03.164Z,99666.59
2022-09-23T07:51:36.305Z,99667.44
2022-09-23T07:54:08.002Z,99661.91
2022-09-23T07:56:37.240Z,99665.81
2022-09-23T07:59:09.028Z,99662.69
2022-09-23T08:01:39.989Z,99660.97
2022-09-23T08:04:12.676Z,99667.31
2022-09-23T08:06:48.658Z,99665.22
2022-09-23T08:09:18.764Z,99671.84
2022-09-23T08:11:46.705Z,99663.31
2022-09-23T08:14:15.567Z,99663.59
2022-09-23T08:16:45.477Z,99665.13
2022-09-23T08:19:13.990Z,99672.44
2022-09-23T08:21:42.450Z,99669.03
2022-09-23T08:24:14.837Z,99668.13
2022-09-23T08:26:43.604Z,99672.41
2022-09-23T08:29:18.985Z,99665.59
2022-09-23T08:31:46.967Z,99663.53
2022-09-23T08:34:15.500Z,99667.13
2022-09-23T08:36:43.327Z,99663.94
2022-09-23T08:39:17.819Z,99647.44
2022-09-23T08:42:04.104Z,99653.00
2022-09-23T08:44:37.754Z,99656.59
2022-09-23T08:47:43.903Z,99655.91
2022-09-23T08:50:18.624Z,99660.81
2022-09-23T08:52:57.204Z,99657.00
2022-09-23T08:55:35.306Z,99658.69
2022-09-23T08:58:31.319Z,99665.25
2022-09-23T09:01:15.875Z,99659.06
2022-09-23T09:04:09.440Z,99656.88
2022-09-23T09:06:53.038Z,99665.94
2022-09-23T09:09:53.350Z,99660.91
2022-09-23T09:12:27.025Z,99658.69
2022-09-23T09:14:57.663Z,99658.28
2022-09-23T09:17:50.915Z,99656.53
2022-09-23T09:20:23.408Z,99654.62
2022-09-23T09:22:57.896Z,99659.34
2022-09-23T09:25:44.635Z,99656.41
2022-09-23T09:28:36.035Z,99653.97
2022-09-23T09:31:28.466Z,99659.75
2022-09-23T09:34:33.936Z,99652.00
2022-09-23T09:37:07.724Z,99650.22
2022-09-23T09:39:37.073Z,99649.06
2022-09-23T09:42:07.694Z,99641.50
2022-09-23T09:44:50.444Z,99640.38
2022-09-23T09:47:46.979Z,99632.81
2022-09-23T09:50:22.259Z,99635.53
2022-09-23T09:52:51.318Z,99626.00
2022-09-23T09:55:28.988Z,99624.59
2022-09-23T09:58:04.299Z,99636.31
2022-09-23T10:00:39.231Z,99629.91
2022-09-23T10:03:33.980Z,99626.87
2022-09-23T10:06:17.530Z,99622.28
2022-09-23T10:09:09.524Z,99617.75
2022-09-23T10:11:38.467Z,99624.22
2022-09-23T10:14:17.916Z,99624.09
2022-09-23T10:16:48.919Z,99626.47
2022-09-23T10:19:26.584Z,99615.56
2022-09-23T10:22:00.370Z,99622.88
2022-09-23T10:24:31.159Z,99618.59
2022-09-23T10:27:09.704Z,99619.34
2022-09-23T10:29:50.454Z,99618.03
2022-09-23T10:32:30.455Z,99627.56
2022-09-23T10:35:01.765Z,99621.34
2022-09-23T10:37:44.775Z,99625.91
2022-09-23T10:41:02.461Z,99611.22
2022-09-23T10:43:51.800Z,99615.22
2022-09-23T10:46:41.171Z,99610.66
2022-09-23T10:49:46.016Z,99612.75
2022-09-23T10:52:23.354Z,99608.75
2022-09-23T10:55:28.539Z,99617.91
2022-09-23T10:58:24.907Z,99620.94
2022-09-23T11:01:05.508Z,99612.63
2022-09-23T11:04:16.640Z,99617.41
2022-09-23T11:06:50.673Z,99619.47
2022-09-23T11:09:40.688Z,99614.16
2022-09-23T11:12:14.988Z,99609.75
2022-09-23T11:15:07.744Z,99603.84
2022-09-23T11:18:02.956Z,99597.97
2022-09-23T11:20:40.997Z,99596.91
2022-09-23T11:23:27.391Z,99588.91
2022-09-23T11:26:22.796Z,99592.13
2022-09-23T11:29:17.186Z,99586.41
2022-09-23T11:32:27.709Z,99586.41
2022-09-23T11:35:20.937Z,99582.53
2022-09-23T11:37:53.148Z,99571.31
2022-09-23T11:40:30.685Z,99573.63
2022-09-23T11:43:24.092Z,99566.78
2022-09-23T11:46:01.011Z,99565.34
2022-09-23T11:48:35.754Z,99561.50
2022-09-23T11:51:07.094Z,99561.03
2022-09-23T11:53:43.391Z,99560.16
2022-09-23T11:56:49.634Z,99558.50
2022-09-23T12:02:28.250Z,99557.13
2022-09-23T12:05:09.154Z,99554.84
2022-09-23T12:08:03.777Z,99552.37
2022-09-23T12:10:46.428Z,99548.91
2022-09-23T12:13:21.369Z,99552.63
2022-09-23T12:15:52.489Z,99541.88
2022-09-23T12:18:25.947Z,99541.03
2022-09-23T12:21:02.550Z,99536.75
2022-09-23T12:23:51.450Z,99538.88
2022-09-23T12:26:22.324Z,99538.06
2022-09-23T12:28:53.083Z,99539.91
2022-09-23T12:31:30.771Z,99528.00
2022-09-23T12:34:00.784Z,99523.75
2022-09-23T12:36:36.020Z,99522.81
2022-09-23T12:39:18.075Z,99518.50
2022-09-23T12:41:51.652Z,99518.09
2022-09-23T12:44:41.522Z,99511.22
2022-09-23T12:47:21.194Z,99516.88
2022-09-23T12:49:51.041Z,99514.81
2022-09-23T12:52:19.169Z,99509.00
2022-09-23T12:54:48.732Z,99499.47
2022-09-23T12:57:35.062Z,99499.97
2022-09-23T13:00:13.205Z,99494.72
2022-09-23T13:02:43.871Z,99490.72
2022-09-23T13:05:37.972Z,99494.94
2022-09-23T13:08:24.942Z,99485.56
2022-09-23T13:10:56.123Z,99482.41
2022-09-23T13:13:42.134Z,99482.87
2022-09-23T13:16:26.943Z,99488.34
2022-09-23T13:19:00.264Z,99474.66
2022-09-23T13:21:43.737Z,99483.31
2022-09-23T13:24:23.299Z,99472.03
2022-09-23T13:26:53.748Z,99482.91
2022-09-23T13:29:33.476Z,99482.94
2022-09-23T13:32:03.511Z,99480.41
2022-09-23T13:34:35.357Z,99483.56
2022-09-23T13:37:23.536Z,99480.16
2022-09-23T13:39:51.457Z,99478.72
2022-09-23T13:42:29.887Z,99480.25
2022-09-23T13:44:59.156Z,99473.06
2022-09-23T13:47:28.840Z,99466.38
2022-09-23T13:49:57.140Z,99469.94
2022-09-23T13:52:31.966Z,99466.75
2022-09-23T13:55:00.280Z,99463.06
2022-09-23T13:57:37.159Z,99470.75
2022-09-23T14:00:18.648Z,99469.28
2022-09-23T14:02:50.327Z,99465.94
2022-09-23T14:05:27.408Z,99464.47
2022-09-23T14:07:56.219Z,99460.47
2022-09-23T14:10:26.009Z,99466.19
2022-09-23T14:12:55.469Z,99458.09
2022-09-23T14:15:23.680Z,99460.84
2022-09-23T14:18:01.711Z,99460.78
2022-09-23T14:20:30.545Z,99461.25
2022-09-23T14:23:11.994Z,99456.78
2022-09-23T14:25:41.152Z,99457.81
2022-09-23T14:28:14.442Z,99453.88
2022-09-23T14:30:44.813Z,99449.41
2022-09-23T14:33:22.454Z,99452.41
2022-09-23T14:35:56.862Z,99445.75
2022-09-23T14:38:45.605Z,99449.03
2022-09-23T14:41:22.289Z,99449.28
2022-09-23T14:43:57.327Z,99441.72
2022-09-23T14:46:27.815Z,99439.28
2022-09-23T14:49:07.840Z,99434.06
2022-09-23T14:51:44.043Z,99439.09
2022-09-23T14:54:39.102Z,99432.22
2022-09-23T14:57:26.816Z,99433.72
2022-09-23T15:00:09.854Z,99436.00
2022-09-23T15:02:39.996Z,99432.97
2022-09-23T15:05:18.536Z,99432.09
2022-09-23T15:07:52.084Z,99432.31
2022-09-23T15:10:31.938Z,99431.63
2022-09-23T15:13:20.238Z,99435.13
2022-09-23T15:15:48.140Z,99436.00
2022-09-23T15:18:20.714Z,99433.44
2022-09-23T15:20:53.429Z,99435.25
2022-09-23T15:23:49.167Z,99436.47
2022-09-23T15:26:41.165Z,99436.53
2022-09-23T15:29:10.015Z,99433.12
2022-09-23T15:31:37.900Z,99434.41
2022-09-23T15:34:05.991Z,99434.16
2022-09-23T15:36:35.053Z,99439.56
2022-09-23T15:39:05.740Z,99436.34
2022-09-23T15:41:33.802Z,99435.16
2022-09-23T15:44:05.673Z,99430.78
2022-09-23T15:46:34.128Z,99430.97
2022-09-23T15:49:09.501Z,99426.09
2022-09-23T15:51:38.741Z,99426.31
2022-09-23T15:54:12.584Z,99424.28
2022-09-23T15:56:40.462Z,99423.50
2022-09-23T15:59:08.577Z,99419.88
2022-09-23T16:01:36.907Z,99421.94
2022-09-23T16:04:05.373Z,99429.97
2022-09-23T16:06:36.203Z,99427.03
2022-09-23T16:09:03.981Z,99424.78
2022-09-23T16:11:33.013Z,99424.31
2022-09-23T16:14:00.983Z,99422.22
2022-09-23T16:16:29.506Z,99426.38
2022-09-23T16:18:57.594Z,99424.72
2022-09-23T16:21:26.862Z,99430.53
2022-09-23T16:23:57.411Z,99427.06
2022-09-23T16:26:36.014Z,99429.34
2022-09-23T16:29:03.807Z,99433.62
2022-09-23T16:31:31.987Z,99427.28
2022-09-23T16:34:02.615Z,99430.50
2022-09-23T16:36:32.042Z,99422.06
2022-09-23T16:39:02.165Z,99428.69
2022-09-23T16:41:31.694Z,99429.44
2022-09-23T16:44:01.086Z,99428.34
2022-09-23T16:46:29.519Z,99439.28
2022-09-23T16:48:58.365Z,99441.53
2022-09-23T16:51:29.236Z,99428.97
2022-09-23T16:53:58.845Z,99436.37
2022-09-23T16:56:29.322Z,99435.19
2022-09-23T16:58:57.600Z,99429.94
2022-09-23T17:01:46.602Z,99429.59
2022-09-23T17:04:16.459Z,99425.47
2022-09-23T17:06:46.496Z,99425.75
2022-09-23T17:09:14.724Z,99429.50
2022-09-23T17:11:44.074Z,99423.88
2022-09-23T17:14:11.874Z,99425.94
2022-09-23T17:16:39.876Z,99427.06
2022-09-23T17:19:08.886Z,99431.66
2022-09-23T17:21:37.001Z,99430.53
2022-09-23T17:24:05.500Z,99428.13
2022-09-23T17:26:33.657Z,99431.88
2022-09-23T17:29:02.210Z,99435.56
2022-09-23T17:31:30.763Z,99434.09
2022-09-23T17:33:58.605Z,99433.38
2022-09-23T17:36:28.156Z,99430.78
2022-09-23T17:38:56.268Z,99435.19
2022-09-23T17:41:24.395Z,99430.94
2022-09-23T17:43:56.883Z,99433.50
2022-09-23T17:46:24.888Z,99433.47
2022-09-23T17:48:55.811Z,99442.97
2022-09-23T17:51:25.533Z,99442.38
2022-09-23T17:53:53.314Z,99445.97
2022-09-23T17:56:25.816Z,99447.44
2022-09-23T17:58:54.107Z,99445.03
2022-09-23T18:01:24.185Z,99444.00
2022-09-23T18:04:00.306Z,99450.88
2022-09-23T18:06:31.858Z,99446.13
2022-09-23T18:09:01.747Z,99446.91
2022-09-23T18:11:31.707Z,99449.38
2022-09-23T18:14:14.233Z,99451.87
2022-09-23T18:16:44.346Z,99454.63
2022-09-23T18:19:15.091Z,99451.19
2022-09-23T18:21:46.255Z,99453.78
2022-09-23T18:27:02.146Z,99453.19
2022-09-23T18:29:30.637Z,99447.81
2022-09-23T18:31:59.503Z,99452.16
2022-09-23T18:34:28.778Z,99453.09
2022-09-23T18:36:56.880Z,99454.94
2022-09-23T18:39:24.670Z,99452.28
2022-09-23T18:41:52.433Z,99471.53
2022-09-23T18:44:20.525Z,99461.16
2022-09-23T18:46:48.257Z,99462.81
2022-09-23T18:49:34.279Z,99459.34
2022-09-23T18:52:02.707Z,99469.78
2022-09-23T18:54:30.557Z,99468.03
2022-09-23T18:56:59.480Z,99469.78
2022-09-23T18:59:29.724Z,99464.50
2022-09-23T19:01:57.944Z,99466.28
2022-09-23T19:04:26.825Z,99458.47
2022-09-23T19:06:56.826Z,99461.13
2022-09-23T19:09:25.084Z,99464.59
2022-09-23T19:11:53.006Z,99466.34
2022-09-23T19:14:21.510Z,99470.66
2022-09-23T19:16:49.456Z,99461.09
2022-09-23T19:19:17.272Z,99460.22
2022-09-23T19:21:45.376Z,99463.72
2022-09-23T19:24:16.255Z,99460.25
2022-09-23T19:26:44.399Z,99469.78
2022-09-23T19:29:19.717Z,99464.56
2022-09-23T19:31:48.548Z,99468.94
2022-09-23T19:34:23.993Z,99464.59
2022-09-23T19:36:52.979Z,99461.13
2022-09-23T19:39:26.621Z,99461.16
2022-09-23T19:41:56.065Z,99466.34
2022-09-23T19:44:25.275Z,99462.00
2022-09-23T19:46:56.411Z,99466.31
2022-09-23T19:49:25.640Z,99459.41
2022-09-23T19:51:56.237Z,99459.41
2022-09-23T19:54:26.730Z,99462.88
2022-09-23T19:56:54.952Z,99461.16
2022-09-23T19:59:22.645Z,99467.22
2022-09-23T20:01:50.586Z,99466.34
2022-09-23T20:04:18.850Z,99462.84
2022-09-23T20:06:50.635Z,99461.13
2022-09-23T20:09:20.944Z,99459.37
2022-09-23T20:11:56.783Z,99456.78
2022-09-23T20:14:29.767Z,99459.34
2022-09-23T20:17:01.615Z,99454.19
2022-09-23T20:19:29.795Z,99452.44
2022-09-23T20:22:16.085Z,99450.56
2022-09-23T20:24:44.096Z,99448.94
2022-09-23T20:27:11.895Z,99449.81
2022-09-23T20:29:39.494Z,99447.28
2022-09-23T20:32:07.496Z,99457.66
2022-09-23T20:34:35.365Z,99458.44
2022-09-23T20:37:04.484Z,99454.19
2022-09-23T20:39:32.514Z,99452.44
2022-09-23T20:42:00.602Z,99457.56
2022-09-23T20:44:28.554Z,99449.63
2022-09-23T20:46:56.569Z,99451.94
2022-09-23T20:49:24.366Z,99445.50
2022-09-23T20:51:51.974Z,99443.78
2022-09-23T20:54:20.037Z,99444.56
2022-09-23T20:56:47.921Z,99442.03
2022-09-23T20:59:17.965Z,99446.06
2022-09-23T21:01:47.830Z,99444.28
2022-09-23T21:04:15.652Z,99448.56
2022-09-23T21:06:43.444Z,99441.62
2022-09-23T21:09:11.445Z,99439.28
2022-09-23T21:11:39.083Z,99441.16
2022-09-23T21:14:06.846Z,99436.84
2022-09-23T21:16:35.654Z,99441.12
2022-09-23T21:19:04.453Z,99447.13
2022-09-23T21:21:32.594Z,99443.63
2022-09-23T21:24:23.798Z,99453.41
2022-09-23T21:26:50.590Z,99448.47
2022-09-23T21:29:18.543Z,99443.41
2022-09-23T21:31:49.170Z,99441.81
2022-09-23T21:34:16.815Z,99448.03
2022-09-23T21:36:44.964Z,99442.78
2022-09-23T21:39:12.874Z,99444.47
2022-09-23T21:41:40.535Z,99454.03
2022-09-23T21:44:08.733Z,99450.59
2022-09-23T21:46:37.124Z,99449.31
2022-09-23T21:49:05.344Z,99441.03
2022-09-23T21:51:40.853Z,99452.72
2022-09-23T21:54:15.755Z,99455.81
2022-09-23T21:56:44.338Z,99457.31
2022-09-23T21:59:12.089Z,99453.09
2022-09-23T22:01:43.725Z,99459.94
2022-09-23T22:04:17.616Z,99459.06
2022-09-23T22:06:46.445Z,99455.97
2022-09-23T22:09:17.077Z,99457.19
2022-09-23T22:12:04.042Z,99447.94
2022-09-23T22:14:32.196Z,99454.84
2022-09-23T22:17:02.862Z,99445.31
2022-09-23T22:19:33.313Z,99447.00
2022-09-23T22:22:12.975Z,99461.59
2022-09-23T22:24:41.797Z,99458.13
2022-09-23T22:27:11.293Z,99454.78
2022-09-23T22:29:57.644Z,99457.34
2022-09-23T22:32:40.837Z,99458.25
2022-09-23T22:35:11.073Z,99454.88
2022-09-23T22:37:39.390Z,99455.66
2022-09-23T22:40:10.561Z,99453.84
2022-09-23T22:42:40.629Z,99455.75
2022-09-23T22:45:10.485Z,99452.25
2022-09-23T22:47:39.761Z,99455.59
2022-09-23T22:50:09.228Z,99454.34
2022-09-23T22:52:38.020Z,99456.38
2022-09-23T22:55:08.271Z,99453.75
2022-09-23T22:57:36.862Z,99449.81
2022-09-23T23:00:06.074Z,99453.44
2022-09-23T23:02:33.774Z,99456.88
2022-09-23T23:05:02.392Z,99457.91
2022-09-23T23:07:30.424Z,99448.66
2022-09-23T23:09:58.294Z,99453.66
2022-09-23T23:12:25.926Z,99456.78
2022-09-23T23:14:53.886Z,99451.19
2022-09-23T23:17:21.953Z,99451.75
2022-09-23T23:19:51.005Z,99450.28
2022-09-23T23:22:19.004Z,99450.31
2022-09-23T23:24:46.836Z,99449.44
2022-09-23T23:27:14.518Z,99443.28
2022-09-23T23:29:42.496Z,99443.31
2022-09-23T23:32:10.133Z,99446.66
2022-09-23T23:34:37.870Z,99439.69
2022-09-23T23:37:05.866Z,99448.19
2022-09-23T23:39:33.989Z,99437.81
2022-09-23T23:42:01.591Z,99432.19
2022-09-23T23:44:31.244Z,99437.19
2022-09-23T23:46:58.977Z,99430.41
2022-09-23T23:49:26.564Z,99432.97
2022-09-23T23:51:54.627Z,99430.44
2022-09-23T23:54:22.314Z,99431.19
2022-09-23T23:56:50.205Z,99437.13
2022-09-23T23:59:20.116Z,99438.94
